createdAt,value
2022-08-14T00:01:55.151Z,24.30
2022-08-14T00:04:34.717Z,24.30
2022-08-14T00:07:14.192Z,24.20
2022-08-14T00:09:55.591Z,24.20
2022-08-14T00:12:33.889Z,24.20
2022-08-14T00:15:18.390Z,24.20
2022-08-14T00:17:53.229Z,24.20
2022-08-14T00:20:30.881Z,24.20
2022-08-14T00:23:16.506Z,24.20
2022-08-14T00:25:59.214Z,24.10
2022-08-14T00:28:36.707Z,24.10
2022-08-14T00:31:35.156Z,24.10
2022-08-14T00:34:37.123Z,24.00
2022-08-14T00:37:02.213Z,24.00
2022-08-14T00:39:31.393Z,24.10
2022-08-14T00:41:59.081Z,24.00
2022-08-14T00:44:32.028Z,24.00
2022-08-14T00:47:04.295Z,24.00
2022-08-14T00:49:38.202Z,24.00
2022-08-14T00:52:17.644Z,24.00
2022-08-14T00:55:10.894Z,23.90
2022-08-14T00:57:41.849Z,23.90
2022-08-14T01:00:37.569Z,23.90
2022-08-14T01:03:20.079Z,23.90
2022-08-14T01:05:52.253Z,23.80
2022-08-14T01:08:52.137Z,23.70
2022-08-14T01:11:19.172Z,23.70
2022-08-14T01:14:25.795Z,23.80
2022-08-14T01:16:55.742Z,23.70
2022-08-14T01:19:43.654Z,23.70
2022-08-14T01:22:27.208Z,23.60
2022-08-14T01:25:15.918Z,23.60
2022-08-14T01:27:57.190Z,23.60
2022-08-14T01:30:26.587Z,23.60
2022-08-14T01:32:56.807Z,23.70
2022-08-14T01:36:03.816Z,23.60
2022-08-14T01:38:16.565Z,23.60
2022-08-14T01:40:51.673Z,23.50
2022-08-14T01:43:38.717Z,23.40
2022-08-14T01:46:08.546Z,23.50
2022-08-14T01:48:52.395Z,23.50
2022-08-14T01:51:24.669Z,23.50
2022-08-14T01:54:09.390Z,23.40
2022-08-14T01:56:46.414Z,23.40
2022-08-14T01:59:37.817Z,23.40
2022-08-14T02:02:19.640Z,23.40
2022-08-14T02:04:57.577Z,23.40
2022-08-14T02:07:34.807Z,23.40
2022-08-14T02:10:26.024Z,23.40
2022-08-14T02:12:57.524Z,23.40
2022-08-14T02:15:27.033Z,23.40
2022-08-14T02:17:54.373Z,23.40
2022-08-14T02:20:23.437Z,23.40
2022-08-14T02:23:01.094Z,23.30
2022-08-14T02:25:30.979Z,23.30
2022-08-14T02:28:23.515Z,23.30
2022-08-14T02:30:52.919Z,23.30
2022-08-14T02:33:22.517Z,23.30
2022-08-14T02:35:53.517Z,23.30
2022-08-14T02:38:34.979Z,23.30
2022-08-14T02:41:08.910Z,23.30
2022-08-14T02:43:51.558Z,23.30
2022-08-14T02:46:20.769Z,23.30
2022-08-14T02:49:03.009Z,23.20
2022-08-14T02:51:36.544Z,23.20
2022-08-14T02:54:09.818Z,23.20
2022-08-14T02:57:15.784Z,23.10
2022-08-14T02:59:34.202Z,23.00
2022-08-14T03:02:04.455Z,23.00
2022-08-14T03:04:33.637Z,23.00
2022-08-14T03:07:07.048Z,23.00
2022-08-14T03:09:42.358Z,23.00
2022-08-14T03:12:31.432Z,22.90
2022-08-14T03:15:19.208Z,22.90
2022-08-14T03:17:57.770Z,23.00
2022-08-14T03:20:30.460Z,22.90
2022-08-14T03:23:04.324Z,22.90
2022-08-14T03:25:34.019Z,22.90
2022-08-14T03:28:29.607Z,22.80
2022-08-14T03:31:04.322Z,22.80
2022-08-14T03:33:37.503Z,22.80
2022-08-14T03:37:37.422Z,22.80
2022-08-14T03:39:23.046Z,22.80
2022-08-14T03:41:59.957Z,22.80
2022-08-14T03:45:25.165Z,22.70
2022-08-14T03:47:20.715Z,22.70
2022-08-14T03:49:50.038Z,22.70
2022-08-14T03:52:39.395Z,22.60
2022-08-14T03:55:31.131Z,22.60
2022-08-14T03:58:00.422Z,22.60
2022-08-14T04:00:42.653Z,22.70
2022-08-14T04:03:18.238Z,22.60
2022-08-14T04:05:59.549Z,22.70
2022-08-14T04:08:30.968Z,22.60
2022-08-14T04:11:07.996Z,22.60
2022-08-14T04:13:42.885Z,22.60
2022-08-14T04:16:14.199Z,22.60
2022-08-14T04:18:43.897Z,22.60
2022-08-14T04:21:12.993Z,22.60
2022-08-14T04:23:42.861Z,22.60
2022-08-14T04:26:14.612Z,22.60
2022-08-14T04:29:07.912Z,22.60
2022-08-14T04:32:57.528Z,22.60
2022-08-14T04:34:20.769Z,22.60
2022-08-14T04:37:13.794Z,22.60
2022-08-14T04:40:22.712Z,22.60
2022-08-14T04:43:18.330Z,22.60
2022-08-14T04:46:55.623Z,22.60
2022-08-14T04:49:02.156Z,22.70
2022-08-14T04:51:46.222Z,22.70
2022-08-14T04:54:15.008Z,22.70
2022-08-14T04:56:45.437Z,22.80
2022-08-14T04:59:13.123Z,22.80
2022-08-14T05:01:56.882Z,22.90
2022-08-14T05:04:25.119Z,23.00
2022-08-14T05:06:57.426Z,23.10
2022-08-14T05:09:29.063Z,23.10
2022-08-14T05:13:08.309Z,23.10
2022-08-14T05:14:54.852Z,23.20
2022-08-14T05:17:43.646Z,23.20
2022-08-14T05:21:04.859Z,23.30
2022-08-14T05:22:59.802Z,23.30
2022-08-14T05:25:34.135Z,23.30
2022-08-14T05:28:23.165Z,23.40
2022-08-14T05:30:55.548Z,23.40
2022-08-14T05:36:32.292Z,23.50
2022-08-14T05:39:27.346Z,23.60
2022-08-14T05:42:22.156Z,23.60
2022-08-14T05:45:11.003Z,23.60
2022-08-14T05:47:56.685Z,23.60
2022-08-14T05:50:29.284Z,23.60
2022-08-14T05:54:00.030Z,23.60
2022-08-14T06:00:38.592Z,23.60
2022-08-14T06:06:21.645Z,23.70
2022-08-14T06:09:01.502Z,23.70
2022-08-14T06:11:51.069Z,23.80
2022-08-14T06:14:38.775Z,23.80
2022-08-14T06:17:47.476Z,23.80
2022-08-14T06:20:47.311Z,23.80
2022-08-14T06:23:16.719Z,23.70
2022-08-14T06:26:30.612Z,23.80
2022-08-14T06:29:17.013Z,23.80
2022-08-14T06:35:03.835Z,23.90
2022-08-14T06:40:48.012Z,24.10
2022-08-14T06:43:32.594Z,24.10
2022-08-14T06:46:22.296Z,24.10
2022-08-14T06:48:57.340Z,24.20
2022-08-14T06:51:25.382Z,24.30
2022-08-14T06:54:06.444Z,24.30
2022-08-14T06:56:37.637Z,24.40
2022-08-14T06:59:19.727Z,24.50
2022-08-14T07:02:17.785Z,24.50
2022-08-14T07:05:20.839Z,24.50
2022-08-14T07:08:02.206Z,24.50
2022-08-14T07:10:32.107Z,24.60
2022-08-14T07:13:04.355Z,24.70
2022-08-14T07:15:55.253Z,24.70
2022-08-14T07:18:23.504Z,24.80
2022-08-14T07:20:51.103Z,24.80
2022-08-14T07:23:20.977Z,24.90
2022-08-14T07:25:52.032Z,25.00
2022-08-14T07:28:43.082Z,25.00
2022-08-14T07:31:13.188Z,25.10
2022-08-14T07:33:59.555Z,25.20
2022-08-14T07:36:30.571Z,25.30
2022-08-14T07:39:12.478Z,25.40
2022-08-14T07:41:45.264Z,25.50
2022-08-14T07:46:58.204Z,25.60
2022-08-14T07:49:27.431Z,25.60
2022-08-14T07:51:56.773Z,25.60
2022-08-14T07:54:29.694Z,25.70
2022-08-14T07:57:11.778Z,25.80
2022-08-14T07:59:46.863Z,25.90
2022-08-14T08:02:20.625Z,26.00
2022-08-14T08:05:15.881Z,26.20
2022-08-14T08:07:48.572Z,26.20
2022-08-14T08:11:02.917Z,26.30
2022-08-14T08:13:49.068Z,26.40
2022-08-14T08:16:29.553Z,26.50
2022-08-14T08:19:02.822Z,26.60
2022-08-14T08:21:33.362Z,26.70
2022-08-14T08:24:04.412Z,26.80
2022-08-14T08:26:31.946Z,26.80
2022-08-14T08:28:59.626Z,26.80
2022-08-14T08:31:33.104Z,26.90
2022-08-14T08:34:06.470Z,27.00
2022-08-14T08:36:42.901Z,27.10
2022-08-14T08:39:22.341Z,27.20
2022-08-14T08:41:53.513Z,27.30
2022-08-14T08:44:32.824Z,27.30
2022-08-14T08:47:06.977Z,27.30
2022-08-14T08:49:48.464Z,27.40
2022-08-14T08:52:24.846Z,27.50
2022-08-14T08:54:56.369Z,27.60
2022-08-14T08:57:24.048Z,27.70
2022-08-14T08:59:55.006Z,27.80
2022-08-14T09:02:22.946Z,27.80
2022-08-14T09:05:04.021Z,28.00
2022-08-14T09:07:32.148Z,28.00
2022-08-14T09:10:01.110Z,28.00
2022-08-14T09:12:31.736Z,28.10
2022-08-14T09:15:12.119Z,28.20
2022-08-14T09:17:42.070Z,28.20
2022-08-14T09:20:12.834Z,28.30
2022-08-14T09:22:47.543Z,28.40
2022-08-14T09:25:19.586Z,28.50
2022-08-14T09:27:47.664Z,28.60
2022-08-14T09:30:32.988Z,28.70
2022-08-14T09:33:11.539Z,28.80
2022-08-14T09:35:58.191Z,28.80
2022-08-14T09:38:45.831Z,28.80
2022-08-14T09:42:21.435Z,28.80
2022-08-14T09:44:50.793Z,29.00
2022-08-14T09:47:18.800Z,29.10
2022-08-14T09:49:52.052Z,29.10
2022-08-14T09:52:32.819Z,29.20
2022-08-14T09:55:03.239Z,29.30
2022-08-14T09:57:31.761Z,29.40
2022-08-14T10:00:09.945Z,29.40
2022-08-14T10:03:05.151Z,29.50
2022-08-14T10:05:38.057Z,29.60
2022-08-14T10:08:26.400Z,29.60
2022-08-14T10:11:02.335Z,29.70
2022-08-14T10:13:52.402Z,29.80
2022-08-14T10:16:21.921Z,29.70
2022-08-14T10:19:10.471Z,29.80
2022-08-14T10:21:58.397Z,30.00
2022-08-14T10:24:46.426Z,30.10
2022-08-14T10:27:23.350Z,30.20
2022-08-14T10:29:54.419Z,30.20
2022-08-14T10:32:28.063Z,30.20
2022-08-14T10:35:13.661Z,30.30
2022-08-14T10:37:52.034Z,30.40
2022-08-14T10:40:44.090Z,30.30
2022-08-14T10:43:27.718Z,30.30
2022-08-14T10:46:58.903Z,30.50
2022-08-14T10:49:04.407Z,30.60
2022-08-14T10:51:41.646Z,30.50
2022-08-14T10:54:17.067Z,30.60
2022-08-14T10:57:11.381Z,30.60
2022-08-14T10:59:49.948Z,30.70
2022-08-14T11:02:36.140Z,30.70
2022-08-14T11:08:42.691Z,30.80
2022-08-14T11:11:14.869Z,30.90
2022-08-14T11:14:18.453Z,31.00
2022-08-14T11:16:53.696Z,31.00
2022-08-14T11:19:25.083Z,31.00
2022-08-14T11:22:01.138Z,31.00
2022-08-14T11:24:54.246Z,31.10
2022-08-14T11:27:22.127Z,31.00
2022-08-14T11:30:50.054Z,31.00
2022-08-14T11:32:52.345Z,30.90
2022-08-14T11:35:23.080Z,30.90
2022-08-14T11:37:56.939Z,31.00
2022-08-14T11:40:29.551Z,31.10
2022-08-14T11:42:59.678Z,31.20
2022-08-14T11:45:33.770Z,31.40
2022-08-14T11:49:01.727Z,31.50
2022-08-14T11:51:18.876Z,31.70
2022-08-14T11:53:55.237Z,31.80
2022-08-14T11:56:25.772Z,31.80
2022-08-14T11:58:58.625Z,31.80
2022-08-14T12:01:31.210Z,31.80
2022-08-14T12:04:31.805Z,31.60
2022-08-14T12:07:01.746Z,31.60
2022-08-14T12:09:34.784Z,31.80
2022-08-14T12:12:36.166Z,31.70
2022-08-14T12:15:35.963Z,31.80
2022-08-14T12:18:04.757Z,32.00
2022-08-14T12:20:34.555Z,32.20
2022-08-14T12:23:20.899Z,32.30
2022-08-14T12:26:01.449Z,32.50
2022-08-14T12:29:00.071Z,32.40
2022-08-14T12:31:28.133Z,32.50
2022-08-14T12:34:13.556Z,32.70
2022-08-14T12:36:50.291Z,32.80
2022-08-14T12:39:26.926Z,32.80
2022-08-14T12:42:01.475Z,32.60
2022-08-14T12:44:32.103Z,32.60
2022-08-14T12:47:20.312Z,32.70
2022-08-14T12:49:52.969Z,32.60
2022-08-14T12:52:42.994Z,32.50
2022-08-14T12:55:20.899Z,32.30
2022-08-14T12:57:53.156Z,32.40
2022-08-14T13:00:24.153Z,32.40
2022-08-14T13:02:56.462Z,32.60
2022-08-14T13:05:29.966Z,32.70
2022-08-14T13:07:59.192Z,32.80
2022-08-14T13:10:51.361Z,32.80
2022-08-14T13:13:20.674Z,32.70
2022-08-14T13:15:56.315Z,32.50
2022-08-14T13:18:32.878Z,32.40
2022-08-14T13:21:05.616Z,32.50
2022-08-14T13:23:36.162Z,32.60
2022-08-14T13:26:04.080Z,32.40
2022-08-14T13:28:39.696Z,32.50
2022-08-14T13:31:29.971Z,32.30
2022-08-14T13:34:03.340Z,32.30
2022-08-14T13:36:51.534Z,32.20
2022-08-14T13:39:23.472Z,32.10
2022-08-14T13:41:55.618Z,32.20
2022-08-14T13:44:27.713Z,32.30
2022-08-14T13:46:59.821Z,32.40
2022-08-14T13:49:31.369Z,32.40
2022-08-14T13:52:03.485Z,32.30
2022-08-14T13:54:46.034Z,32.40
2022-08-14T13:57:18.592Z,32.50
2022-08-14T13:59:51.259Z,32.60
2022-08-14T14:02:33.790Z,32.60
2022-08-14T14:05:04.923Z,32.70
2022-08-14T14:07:34.744Z,32.80
2022-08-14T14:10:09.667Z,32.80
2022-08-14T14:12:41.357Z,32.70
2022-08-14T14:15:11.866Z,32.60
2022-08-14T14:17:40.074Z,32.60
2022-08-14T14:20:15.108Z,32.60
2022-08-14T14:23:03.407Z,32.60
2022-08-14T14:25:47.985Z,32.50
2022-08-14T14:28:24.299Z,32.40
2022-08-14T14:30:57.218Z,32.30
2022-08-14T14:36:21.711Z,32.20
2022-08-14T14:39:01.236Z,32.20
2022-08-14T14:41:38.571Z,32.30
2022-08-14T14:44:13.485Z,32.30
2022-08-14T14:46:50.523Z,32.20
2022-08-14T14:49:21.926Z,32.20
2022-08-14T14:51:51.550Z,32.20
2022-08-14T14:54:31.413Z,32.30
2022-08-14T14:57:00.548Z,32.30
2022-08-14T14:59:33.445Z,32.30
2022-08-14T15:02:09.377Z,32.40
2022-08-14T15:04:39.099Z,32.40
2022-08-14T15:07:12.344Z,32.30
2022-08-14T15:09:41.149Z,32.30
2022-08-14T15:12:34.739Z,32.20
2022-08-14T15:14:58.187Z,32.10
2022-08-14T15:17:59.010Z,32.10
2022-08-14T15:20:30.655Z,32.10
2022-08-14T15:23:08.098Z,32.10
2022-08-14T15:25:42.122Z,32.10
2022-08-14T15:28:20.846Z,32.00
2022-08-14T15:30:58.965Z,31.90
2022-08-14T15:34:00.992Z,32.00
2022-08-14T15:36:35.280Z,31.80
2022-08-14T15:39:03.552Z,31.80
2022-08-14T15:41:41.624Z,31.70
2022-08-14T15:44:25.284Z,31.70
2022-08-14T15:46:59.657Z,31.60
2022-08-14T15:49:34.792Z,31.70
2022-08-14T15:52:04.615Z,31.80
2022-08-14T15:54:33.883Z,31.70
2022-08-14T15:57:08.305Z,31.70
2022-08-14T15:59:58.417Z,31.60
2022-08-14T16:02:28.135Z,31.60
2022-08-14T16:04:56.800Z,31.60
2022-08-14T16:07:33.840Z,31.50
2022-08-14T16:10:29.159Z,31.50
2022-08-14T16:13:02.186Z,31.50
2022-08-14T16:15:31.389Z,31.40
2022-08-14T16:18:08.232Z,31.30
2022-08-14T16:21:12.021Z,31.30
2022-08-14T16:23:55.650Z,31.20
2022-08-14T16:26:29.221Z,31.20
2022-08-14T16:29:19.642Z,31.20
2022-08-14T16:31:51.521Z,31.20
2022-08-14T16:34:45.882Z,31.10
2022-08-14T16:37:13.443Z,31.00
2022-08-14T16:39:41.927Z,30.90
2022-08-14T16:43:02.387Z,30.90
2022-08-14T16:44:59.925Z,30.90
2022-08-14T16:47:31.991Z,30.80
2022-08-14T16:50:09.160Z,30.70
2022-08-14T16:52:44.124Z,30.70
2022-08-14T16:55:14.306Z,30.70
2022-08-14T16:57:54.501Z,30.70
2022-08-14T17:00:43.680Z,30.70
2022-08-14T17:03:12.788Z,30.60
2022-08-14T17:05:46.960Z,30.60
2022-08-14T17:08:31.673Z,30.60
2022-08-14T17:11:13.187Z,30.50
2022-08-14T17:13:58.268Z,30.60
2022-08-14T17:16:37.581Z,30.50
2022-08-14T17:19:11.614Z,30.40
2022-08-14T17:21:47.557Z,30.40
2022-08-14T17:24:56.741Z,30.30
2022-08-14T17:27:09.250Z,30.20
2022-08-14T17:30:00.501Z,30.20
2022-08-14T17:32:55.620Z,30.20
2022-08-14T17:35:57.663Z,30.10
2022-08-14T17:38:39.093Z,30.10
2022-08-14T17:41:22.851Z,30.10
2022-08-14T17:43:54.913Z,30.10
2022-08-14T17:46:43.363Z,30.00
2022-08-14T17:49:20.822Z,30.00
2022-08-14T17:52:01.681Z,29.90
2022-08-14T17:54:35.258Z,29.90
2022-08-14T17:57:14.098Z,29.90
2022-08-14T17:59:50.680Z,29.80
2022-08-14T18:02:31.294Z,29.80
2022-08-14T18:05:09.787Z,29.80
2022-08-14T18:08:00.241Z,29.70
2022-08-14T18:10:53.010Z,29.70
2022-08-14T18:13:19.971Z,29.70
2022-08-14T18:16:08.351Z,29.60
2022-08-14T18:19:54.604Z,29.60
2022-08-14T18:22:32.351Z,29.50
2022-08-14T18:25:19.369Z,29.50
2022-08-14T18:27:51.645Z,29.40
2022-08-14T18:30:36.449Z,29.40
2022-08-14T18:33:22.617Z,29.40
2022-08-14T18:35:59.999Z,29.30
2022-08-14T18:38:45.508Z,29.20
2022-08-14T18:41:37.284Z,29.30
2022-08-14T18:44:10.469Z,29.20
2022-08-14T18:47:14.840Z,29.20
2022-08-14T18:49:57.986Z,29.20
2022-08-14T18:52:37.505Z,29.20
2022-08-14T18:55:18.114Z,29.10
2022-08-14T18:58:25.972Z,29.10
2022-08-14T19:00:56.266Z,29.00
2022-08-14T19:03:37.258Z,29.00
2022-08-14T19:06:08.404Z,29.00
2022-08-14T19:08:45.694Z,28.90
2022-08-14T19:11:36.133Z,28.90
2022-08-14T19:14:06.697Z,28.80
2022-08-14T19:16:35.213Z,28.80
2022-08-14T19:19:06.892Z,28.80
2022-08-14T19:21:38.609Z,28.80
2022-08-14T19:24:27.754Z,28.70
2022-08-14T19:27:16.745Z,28.80
2022-08-14T19:29:47.599Z,28.70
2022-08-14T19:32:39.705Z,28.70
2022-08-14T19:35:20.122Z,28.50
2022-08-14T19:37:54.079Z,28.50
2022-08-14T19:40:57.395Z,28.50
2022-08-14T19:43:55.505Z,28.50
2022-08-14T19:46:39.394Z,28.40
2022-08-14T19:49:12.180Z,28.40
2022-08-14T19:51:44.847Z,28.40
2022-08-14T19:54:15.037Z,28.40
2022-08-14T19:56:45.058Z,28.40
2022-08-14T19:59:19.276Z,28.40
2022-08-14T20:01:54.399Z,28.40
2022-08-14T20:04:47.794Z,28.30
2022-08-14T20:07:59.157Z,28.30
2022-08-14T20:11:04.857Z,28.40
2022-08-14T20:13:32.908Z,28.40
2022-08-14T20:16:12.910Z,28.40
2022-08-14T20:18:50.438Z,28.40
2022-08-14T20:21:21.551Z,28.40
2022-08-14T20:23:50.150Z,28.40
2022-08-14T20:26:31.735Z,28.40
2022-08-14T20:29:04.813Z,28.40
2022-08-14T20:31:38.605Z,28.40
2022-08-14T20:34:18.904Z,28.40
2022-08-14T20:37:10.094Z,28.50
2022-08-14T20:39:43.599Z,28.40
2022-08-14T20:42:37.211Z,28.40
2022-08-14T20:45:24.898Z,28.30
2022-08-14T20:48:53.254Z,28.40
2022-08-14T20:51:26.237Z,28.30
2022-08-14T20:54:07.453Z,28.30
2022-08-14T20:56:38.390Z,28.30
2022-08-14T20:59:39.221Z,28.20
2022-08-14T21:02:46.688Z,28.20
2022-08-14T21:05:33.470Z,28.20
2022-08-14T21:08:08.239Z,28.10
2022-08-14T21:10:55.073Z,28.10
2022-08-14T21:14:18.731Z,28.10
2022-08-14T21:16:33.604Z,28.10
2022-08-14T21:19:05.730Z,28.00
2022-08-14T21:21:42.551Z,28.00
2022-08-14T21:24:39.868Z,28.00
2022-08-14T21:27:23.586Z,27.90
2022-08-14T21:29:55.043Z,27.90
2022-08-14T21:32:47.233Z,27.70
2022-08-14T21:35:24.379Z,27.70
2022-08-14T21:37:55.279Z,27.70
2022-08-14T21:40:46.465Z,27.70
2022-08-14T21:43:19.304Z,27.70
2022-08-14T21:46:03.717Z,27.60
2022-08-14T21:48:35.847Z,27.70
2022-08-14T21:51:53.418Z,27.70
2022-08-14T21:54:04.293Z,27.60
2022-08-14T21:56:38.895Z,27.60
2022-08-14T21:59:22.603Z,27.60
2022-08-14T22:02:00.749Z,27.60
2022-08-14T22:04:34.425Z,27.60
2022-08-14T22:07:13.074Z,27.60
2022-08-14T22:09:55.290Z,27.60
2022-08-14T22:12:57.423Z,27.60
2022-08-14T22:15:31.109Z,27.60
2022-08-14T22:18:07.035Z,27.50
2022-08-14T22:20:43.019Z,27.50
2022-08-14T22:23:32.272Z,27.40
2022-08-14T22:26:05.192Z,27.30
2022-08-14T22:28:33.677Z,27.30
2022-08-14T22:31:23.019Z,27.20
2022-08-14T22:34:04.702Z,27.20
2022-08-14T22:37:12.371Z,27.10
2022-08-14T22:40:46.398Z,27.10
2022-08-14T22:42:27.581Z,27.00
2022-08-14T22:45:10.424Z,27.00
2022-08-14T22:47:51.724Z,27.00
2022-08-14T22:50:48.726Z,27.00
2022-08-14T22:53:40.583Z,26.90
2022-08-14T22:56:20.956Z,26.90
2022-08-14T22:58:53.748Z,26.80
2022-08-14T23:02:07.503Z,26.70
2022-08-14T23:04:56.738Z,26.60
2022-08-14T23:08:57.859Z,26.60
2022-08-14T23:10:32.543Z,26.60
2022-08-14T23:13:18.018Z,26.50
2022-08-14T23:15:55.297Z,26.60
2022-08-14T23:18:24.178Z,26.60
2022-08-14T23:21:00.427Z,26.60
2022-08-14T23:23:45.995Z,26.60
2022-08-14T23:26:49.847Z,26.60
2022-08-14T23:29:37.780Z,26.60
2022-08-14T23:32:15.440Z,26.70
2022-08-14T23:34:48.237Z,26.70
2022-08-14T23:37:19.336Z,26.70
2022-08-14T23:41:04.251Z,26.70
2022-08-14T23:43:37.897Z,26.70
2022-08-14T23:46:12.645Z,26.80
2022-08-14T23:49:04.901Z,26.80
2022-08-14T23:51:38.654Z,26.70
2022-08-14T23:54:48.920Z,26.70
2022-08-14T23:57:00.043Z,26.60
2022-08-14T23:59:45.133Z,26.60
